createdAt,value
2018-09-06T00:01:43.494Z,34.18
2018-09-06T00:04:13.191Z,32.28
2018-09-06T00:06:42.887Z,31.77
2018-09-06T00:09:12.619Z,32.40
2018-09-06T00:11:42.359Z,32.28
2018-09-06T00:14:12.044Z,33.67
2018-09-06T00:16:41.732Z,32.67
2018-09-06T00:19:11.407Z,33.40
2018-09-06T00:21:41.111Z,34.43
2018-09-06T00:24:10.841Z,35.10
2018-09-06T00:26:40.534Z,31.85
2018-09-06T00:29:10.207Z,33.10
2018-09-06T00:31:39.923Z,32.45
2018-09-06T00:34:09.811Z,30.82
2018-09-06T00:36:39.887Z,33.80
2018-09-06T00:39:09.571Z,34.60
2018-09-06T00:41:39.277Z,35.60
2018-09-06T00:44:08.969Z,34.10
2018-09-06T00:46:38.663Z,34.83
2018-09-06T00:49:08.703Z,35.48
2018-09-06T00:51:38.439Z,35.20
2018-09-06T00:54:08.663Z,31.93
2018-09-06T00:56:38.731Z,32.83
2018-09-06T00:59:08.460Z,33.10
2018-09-06T01:01:38.151Z,31.97
2018-09-06T01:04:08.162Z,35.95
2018-09-06T01:06:37.870Z,37.83
2018-09-06T01:09:07.531Z,34.60
2018-09-06T01:11:37.563Z,36.35
2018-09-06T01:14:07.259Z,36.33
2018-09-06T01:16:36.942Z,37.45
2018-09-06T01:19:06.625Z,37.15
2018-09-06T01:21:36.307Z,32.95
2018-09-06T01:24:06.238Z,32.95
2018-09-06T01:26:35.942Z,29.32
2018-09-06T01:29:05.671Z,34.53
2018-09-06T01:31:35.351Z,36.05
2018-09-06T01:34:05.078Z,37.58
2018-09-06T01:36:40.206Z,35.80
2018-09-06T01:39:10.694Z,33.92
2018-09-06T01:41:40.376Z,36.35
2018-09-06T01:44:10.025Z,37.03
2018-09-06T01:46:39.963Z,32.85
2018-09-06T01:49:09.967Z,37.28
2018-09-06T01:51:39.658Z,40.30
2018-09-06T01:54:09.346Z,40.30
2018-09-06T01:56:39.379Z,37.08
2018-09-06T01:59:09.071Z,38.65
2018-09-06T02:01:38.760Z,38.48
2018-09-06T02:04:08.514Z,41.80
2018-09-06T02:06:38.307Z,40.33
2018-09-06T02:09:09.046Z,42.03
2018-09-06T02:11:39.905Z,41.02
2018-09-06T02:14:09.614Z,41.73
2018-09-06T02:16:39.315Z,41.70
2018-09-06T02:19:09.342Z,43.40
2018-09-06T02:21:39.362Z,45.50
2018-09-06T02:24:09.443Z,44.03
2018-09-06T02:26:39.152Z,41.53
2018-09-06T02:29:08.830Z,42.50
2018-09-06T02:31:38.514Z,43.95
2018-09-06T02:34:08.582Z,45.25
2018-09-06T02:36:38.680Z,41.73
2018-09-06T02:39:09.874Z,46.40
2018-09-06T02:41:39.816Z,41.80
2018-09-06T02:44:09.702Z,41.77
2018-09-06T02:46:39.407Z,43.98
2018-09-06T02:49:09.088Z,37.53
2018-09-06T02:51:38.775Z,41.10
2018-09-06T02:54:08.463Z,45.85
2018-09-06T02:56:38.135Z,43.38
2018-09-06T02:59:08.187Z,43.40
2018-09-06T03:01:37.874Z,42.10
2018-09-06T03:04:07.662Z,45.03
2018-09-06T03:06:37.326Z,44.88
2018-09-06T03:09:08.171Z,43.17
2018-09-06T03:11:43.086Z,44.83
2018-09-06T03:14:12.827Z,45.43
2018-09-06T03:16:42.767Z,43.02
2018-09-06T03:19:12.804Z,42.62
2018-09-06T03:21:42.519Z,42.03
2018-09-06T03:24:12.547Z,43.25
2018-09-06T03:26:42.207Z,41.45
2018-09-06T03:29:12.234Z,40.90
2018-09-06T03:31:41.902Z,41.55
2018-09-06T03:34:11.582Z,37.78
2018-09-06T03:36:41.241Z,43.02
2018-09-06T03:39:11.106Z,41.68
2018-09-06T03:41:40.778Z,43.35
2018-09-06T03:44:10.462Z,42.73
2018-09-06T03:46:40.159Z,39.35
2018-09-06T03:49:09.823Z,41.95
2018-09-06T03:51:39.467Z,38.17
2018-09-06T03:54:09.150Z,42.27
2018-09-06T03:56:38.851Z,37.30
2018-09-06T03:59:08.566Z,39.80
2018-09-06T04:01:38.273Z,42.98
2018-09-06T04:04:07.989Z,41.90
2018-09-06T04:06:37.654Z,44.18
2018-09-06T04:09:09.663Z,44.95
2018-09-06T04:11:39.614Z,47.78
2018-09-06T04:14:09.311Z,45.40
2018-09-06T04:16:38.958Z,39.45
2018-09-06T04:19:09.123Z,45.35
2018-09-06T04:21:39.119Z,45.00
2018-09-06T04:24:09.268Z,42.33
2018-09-06T04:26:39.102Z,35.83
2018-09-06T04:29:09.083Z,44.27
2018-09-06T04:31:38.736Z,44.58
2018-09-06T04:34:08.453Z,40.23
2018-09-06T04:36:38.199Z,42.80
2018-09-06T04:39:10.808Z,41.28
2018-09-06T04:41:40.467Z,45.58
2018-09-06T04:44:10.187Z,45.12
2018-09-06T04:46:39.867Z,36.23
2018-09-06T04:49:09.544Z,46.58
2018-09-06T04:51:39.203Z,46.00
2018-09-06T04:54:08.846Z,45.80
2018-09-06T04:56:38.519Z,45.73
2018-09-06T04:59:08.166Z,45.90
2018-09-06T05:01:37.899Z,45.10
2018-09-06T05:04:07.697Z,43.42
2018-09-06T05:06:37.522Z,46.35
2018-09-06T05:09:09.332Z,46.75
2018-09-06T05:11:40.034Z,45.90
2018-09-06T05:14:09.772Z,43.87
2018-09-06T05:16:39.471Z,40.55
2018-09-06T05:19:09.175Z,38.83
2018-09-06T05:21:38.855Z,45.25
2018-09-06T05:24:08.536Z,39.33
2018-09-06T05:26:38.224Z,45.30
2018-09-06T05:29:07.894Z,44.15
2018-09-06T05:31:37.587Z,42.20
2018-09-06T05:34:07.279Z,42.95
2018-09-06T05:36:37.144Z,41.45
2018-09-06T05:39:09.643Z,41.42
2018-09-06T05:41:39.674Z,39.78
2018-09-06T05:44:10.006Z,41.25
2018-09-06T05:46:40.259Z,40.38
2018-09-06T05:49:10.011Z,41.10
2018-09-06T05:51:39.694Z,41.58
2018-09-06T05:54:09.383Z,41.58
2018-09-06T05:56:39.060Z,39.03
2018-09-06T05:59:08.732Z,39.10
2018-09-06T06:01:38.439Z,43.33
2018-09-06T06:04:08.111Z,37.58
2018-09-06T06:06:37.863Z,35.80
2018-09-06T06:09:08.906Z,39.00
2018-09-06T06:11:38.702Z,34.70
2018-09-06T06:14:08.534Z,32.55
2018-09-06T06:16:38.235Z,30.57
2018-09-06T06:19:07.911Z,29.72
2018-09-06T06:21:37.593Z,29.63
2018-09-06T06:24:07.288Z,32.65
2018-09-06T06:26:36.981Z,32.42
2018-09-06T06:29:07.008Z,32.30
2018-09-06T06:31:36.727Z,31.87
2018-09-06T06:34:06.469Z,31.25
2018-09-06T06:36:36.346Z,33.50
2018-09-06T06:39:09.151Z,34.18
2018-09-06T06:41:39.123Z,33.48
2018-09-06T06:44:08.882Z,33.18
2018-09-06T06:46:38.602Z,32.23
2018-09-06T06:49:08.303Z,31.57
2018-09-06T06:51:37.995Z,32.33
2018-09-06T06:54:07.694Z,31.62
2018-09-06T06:56:37.383Z,30.90
2018-09-06T06:59:07.069Z,31.20
2018-09-06T07:01:36.763Z,30.12
2018-09-06T07:04:06.565Z,29.37
2018-09-06T07:06:36.383Z,29.20
2018-09-06T07:09:08.350Z,29.05
2018-09-06T07:11:38.032Z,29.65
2018-09-06T07:14:07.691Z,28.95
2018-09-06T07:16:37.382Z,29.32
2018-09-06T07:19:07.060Z,30.00
2018-09-06T07:21:36.771Z,29.67
2018-09-06T07:24:06.447Z,30.32
2018-09-06T07:26:36.140Z,28.45
2018-09-06T07:29:05.790Z,27.02
2018-09-06T07:31:35.829Z,27.13
2018-09-06T07:34:06.159Z,24.32
2018-09-06T07:36:35.834Z,26.35
2018-09-06T07:39:09.002Z,26.75
2018-09-06T07:41:38.906Z,25.15
2018-09-06T07:44:08.594Z,25.40
2018-09-06T07:46:38.256Z,27.20
2018-09-06T07:49:07.992Z,26.55
2018-09-06T07:51:37.667Z,24.30
2018-09-06T07:54:07.719Z,23.20
2018-09-06T07:56:37.383Z,23.25
2018-09-06T07:59:07.105Z,22.82
2018-09-06T08:01:36.824Z,22.25
2018-09-06T08:04:07.139Z,22.27
2018-09-06T08:06:36.879Z,20.48
2018-09-06T08:09:09.390Z,19.48
2018-09-06T08:11:39.740Z,20.05
2018-09-06T08:14:09.040Z,20.77
2018-09-06T08:16:38.747Z,19.35
2018-09-06T08:19:08.482Z,18.32
2018-09-06T08:21:38.175Z,15.83
2018-09-06T08:24:07.969Z,15.98
2018-09-06T08:26:37.802Z,15.68
2018-09-06T08:29:07.836Z,16.48
2018-09-06T08:31:37.507Z,15.35
2018-09-06T08:34:07.210Z,14.87
2018-09-06T08:36:36.903Z,14.93
2018-09-06T08:39:09.323Z,15.20
2018-09-06T08:41:39.788Z,15.32
2018-09-06T08:44:09.545Z,15.20
2018-09-06T08:46:39.225Z,15.43
2018-09-06T08:49:08.931Z,15.03
2018-09-06T08:51:38.998Z,14.58
2018-09-06T08:54:08.735Z,15.53
2018-09-06T08:56:38.439Z,14.85
2018-09-06T08:59:08.129Z,14.63
2018-09-06T09:01:42.855Z,13.95
2018-09-06T09:04:12.555Z,14.25
2018-09-06T09:06:42.236Z,14.55
2018-09-06T09:09:13.619Z,14.18
2018-09-06T09:11:43.306Z,14.25
2018-09-06T09:14:12.986Z,14.23
2018-09-06T09:16:43.292Z,14.43
2018-09-06T09:19:13.000Z,14.53
2018-09-06T09:21:42.709Z,13.35
2018-09-06T09:24:12.586Z,12.78
2018-09-06T09:26:42.267Z,13.85
2018-09-06T09:29:11.939Z,13.68
2018-09-06T09:31:41.654Z,12.70
2018-09-06T09:34:11.378Z,13.65
2018-09-06T09:36:41.059Z,13.10
2018-09-06T09:39:11.167Z,13.40
2018-09-06T09:41:40.826Z,13.32
2018-09-06T09:44:10.512Z,13.05
2018-09-06T09:49:09.770Z,13.58
2018-09-06T09:51:39.435Z,12.85
2018-09-06T09:54:09.175Z,13.00
2018-09-06T09:56:38.926Z,13.45
2018-09-06T09:59:08.616Z,12.88
2018-09-06T10:02:45.614Z,12.40
2018-09-06T10:05:20.593Z,12.53
2018-09-06T10:07:57.619Z,11.90
2018-09-06T10:10:27.390Z,11.73
2018-09-06T10:12:57.458Z,11.97
2018-09-06T10:15:27.504Z,12.35
2018-09-06T10:17:57.210Z,11.75
2018-09-06T10:20:27.127Z,11.55
2018-09-06T10:22:56.855Z,11.12
2018-09-06T10:25:26.551Z,12.47
2018-09-06T10:27:56.272Z,12.40
2018-09-06T10:30:26.007Z,12.15
2018-09-06T10:32:55.747Z,11.73
2018-09-06T10:35:25.911Z,12.20
2018-09-06T10:37:55.747Z,12.80
2018-09-06T10:40:25.803Z,11.88
2018-09-06T10:42:55.646Z,11.12
2018-09-06T10:45:25.354Z,11.10
2018-09-06T10:47:55.139Z,11.80
2018-09-06T10:50:25.339Z,11.53
2018-09-06T10:52:55.355Z,11.80
2018-09-06T10:55:25.399Z,11.25
2018-09-06T10:57:55.063Z,11.28
2018-09-06T11:00:24.858Z,11.38
2018-09-06T11:02:54.591Z,10.93
2018-09-06T11:05:24.314Z,11.40
2018-09-06T11:07:54.090Z,10.53
2018-09-06T11:10:23.950Z,10.68
2018-09-06T11:12:53.613Z,11.22
2018-09-06T11:15:23.290Z,11.68
2018-09-06T11:17:52.968Z,10.60
2018-09-06T11:20:22.858Z,11.55
2018-09-06T11:22:52.510Z,11.10
2018-09-06T11:25:22.203Z,10.45
2018-09-06T11:27:52.132Z,10.32
2018-09-06T11:30:21.992Z,10.85
2018-09-06T11:32:51.670Z,11.05
2018-09-06T11:35:21.371Z,11.22
2018-09-06T11:37:51.074Z,10.90
2018-09-06T11:40:21.082Z,9.68
2018-09-06T11:42:50.938Z,10.65
2018-09-06T11:45:20.622Z,11.10
2018-09-06T11:47:50.454Z,11.05
2018-09-06T11:50:20.629Z,10.55
2018-09-06T11:52:50.311Z,10.88
2018-09-06T11:55:20.071Z,10.25
2018-09-06T11:57:49.780Z,10.18
2018-09-06T12:00:19.500Z,10.05
2018-09-06T12:02:49.194Z,9.53
2018-09-06T12:05:18.898Z,9.78
2018-09-06T12:07:48.600Z,10.68
2018-09-06T12:10:18.307Z,9.45
2018-09-06T12:12:47.999Z,9.83
2018-09-06T12:15:17.655Z,9.28
2018-09-06T12:17:47.336Z,9.48
2018-09-06T12:20:17.052Z,9.20
2018-09-06T12:22:46.771Z,9.03
2018-09-06T12:25:16.459Z,9.08
2018-09-06T12:27:46.330Z,9.68
2018-09-06T12:30:16.202Z,9.58
2018-09-06T12:32:46.243Z,9.33
2018-09-06T12:35:16.251Z,9.70
2018-09-06T12:37:45.936Z,9.58
2018-09-06T12:40:15.602Z,9.50
2018-09-06T12:42:45.275Z,8.70
2018-09-06T12:45:20.918Z,8.58
2018-09-06T12:47:50.952Z,9.03
2018-09-06T12:50:20.595Z,8.78
2018-09-06T12:52:50.342Z,9.73
2018-09-06T12:55:20.011Z,9.50
2018-09-06T12:57:49.698Z,9.68
2018-09-06T13:00:19.364Z,9.50
2018-09-06T13:02:49.096Z,9.63
2018-09-06T13:05:18.754Z,9.15
2018-09-06T13:07:48.435Z,9.45
2018-09-06T13:10:18.147Z,9.30
2018-09-06T13:12:47.839Z,9.58
2018-09-06T13:15:17.543Z,9.90
2018-09-06T13:17:47.408Z,10.25
2018-09-06T13:20:17.059Z,9.23
2018-09-06T13:22:46.755Z,9.88
2018-09-06T13:25:16.436Z,9.40
2018-09-06T13:27:46.111Z,9.30
2018-09-06T13:30:15.768Z,7.05
2018-09-06T13:32:45.433Z,6.05
2018-09-06T13:35:15.083Z,6.40
2018-09-06T13:37:44.754Z,6.03
2018-09-06T13:40:14.415Z,5.25
2018-09-06T13:42:44.100Z,5.67
2018-09-06T13:45:13.795Z,6.65
2018-09-06T13:47:43.491Z,6.70
2018-09-06T13:50:13.176Z,8.15
2018-09-06T13:52:42.863Z,9.13
2018-09-06T13:55:12.523Z,8.80
2018-09-06T13:57:42.207Z,9.23
2018-09-06T14:00:11.906Z,10.70
2018-09-06T14:02:41.631Z,11.88
2018-09-06T14:05:11.368Z,12.73
2018-09-06T14:07:41.259Z,14.05
2018-09-06T14:10:10.958Z,13.70
2018-09-06T14:12:40.635Z,15.05
2018-09-06T14:15:10.329Z,14.30
2018-09-06T14:17:40.055Z,13.48
2018-09-06T14:20:09.745Z,15.68
2018-09-06T14:22:39.439Z,16.15
2018-09-06T14:25:09.127Z,14.43
2018-09-06T14:27:38.826Z,14.03
2018-09-06T14:30:08.546Z,12.98
2018-09-06T14:32:38.251Z,12.35
2018-09-06T14:35:07.959Z,12.47
2018-09-06T14:37:37.662Z,10.95
2018-09-06T14:40:07.720Z,12.28
2018-09-06T14:42:37.774Z,12.98
2018-09-06T14:45:07.891Z,13.43
2018-09-06T14:47:37.590Z,13.32
2018-09-06T14:50:07.323Z,11.50
2018-09-06T14:52:37.030Z,12.13
2018-09-06T14:55:07.427Z,13.10
2018-09-06T14:57:37.096Z,13.03
2018-09-06T15:00:06.867Z,12.93
2018-09-06T15:02:36.587Z,12.90
2018-09-06T15:05:06.311Z,11.83
2018-09-06T15:07:35.974Z,9.75
2018-09-06T15:10:06.247Z,10.23
2018-09-06T15:12:35.943Z,10.98
2018-09-06T15:15:05.674Z,11.83
2018-09-06T15:17:35.353Z,11.10
2018-09-06T15:20:05.280Z,10.78
2018-09-06T15:22:35.091Z,10.90
2018-09-06T15:25:05.143Z,9.35
2018-09-06T15:27:34.855Z,9.73
2018-09-06T15:30:04.794Z,9.15
2018-09-06T15:32:34.467Z,8.25
2018-09-06T15:35:04.167Z,8.95
2018-09-06T15:37:33.820Z,8.70
2018-09-06T15:40:03.851Z,8.73
2018-09-06T15:42:33.523Z,9.33
2018-09-06T15:45:03.547Z,8.38
2018-09-06T15:47:33.191Z,8.60
2018-09-06T15:50:02.895Z,8.28
2018-09-06T15:52:32.551Z,8.10
2018-09-06T15:55:02.223Z,8.00
2018-09-06T15:57:31.878Z,8.45
2018-09-06T16:00:01.579Z,9.23
2018-09-06T16:02:31.248Z,9.10
2018-09-06T16:05:00.968Z,10.20
2018-09-06T16:07:30.643Z,10.50
2018-09-06T16:10:00.355Z,10.10
2018-09-06T16:12:30.031Z,13.98
2018-09-06T16:14:59.947Z,11.57
2018-09-06T16:17:29.646Z,13.13
2018-09-06T16:19:59.370Z,10.72
2018-09-06T16:22:29.067Z,13.88
2018-09-06T16:24:58.767Z,14.65
2018-09-06T16:27:28.467Z,12.25
2018-09-06T16:29:58.214Z,14.87
2018-09-06T16:32:27.916Z,10.88
2018-09-06T16:34:57.591Z,8.55
2018-09-06T16:37:27.252Z,7.60
2018-09-06T16:39:56.923Z,8.05
2018-09-06T16:42:26.590Z,7.95
2018-09-06T16:44:56.367Z,8.63
2018-09-06T16:47:26.079Z,7.75
2018-09-06T16:49:55.790Z,7.62
2018-09-06T16:52:25.450Z,7.60
2018-09-06T16:54:55.122Z,7.72
2018-09-06T16:57:24.782Z,7.58
2018-09-06T16:59:54.455Z,7.62
2018-09-06T17:02:24.107Z,7.58
2018-09-06T17:04:53.798Z,7.50
2018-09-06T17:07:23.479Z,7.17
2018-09-06T17:09:53.166Z,6.95
2018-09-06T17:12:23.119Z,7.87
2018-09-06T17:14:52.803Z,7.62
2018-09-06T17:17:22.503Z,7.90
2018-09-06T17:19:52.170Z,8.03
2018-09-06T17:22:21.803Z,8.80
2018-09-06T17:24:51.462Z,8.48
2018-09-06T17:27:21.127Z,7.75
2018-09-06T17:29:50.766Z,9.30
2018-09-06T17:32:20.466Z,9.60
2018-09-06T17:34:50.275Z,8.98
2018-09-06T17:37:19.939Z,9.18
2018-09-06T17:39:49.606Z,9.93
2018-09-06T17:42:19.352Z,11.65
2018-09-06T17:44:49.003Z,13.00
2018-09-06T17:47:19.047Z,12.58
2018-09-06T17:49:49.119Z,13.98
2018-09-06T17:52:18.831Z,13.08
2018-09-06T17:54:48.503Z,13.20
2018-09-06T17:57:18.210Z,12.80
2018-09-06T17:59:47.871Z,14.68
2018-09-06T18:02:17.942Z,13.80
2018-09-06T18:04:47.647Z,14.87
2018-09-06T18:07:17.343Z,16.85
2018-09-06T18:09:47.050Z,15.03
2018-09-06T18:12:17.131Z,15.72
2018-09-06T18:14:47.162Z,15.20
2018-09-06T18:17:16.904Z,15.10
2018-09-06T18:19:46.810Z,15.25
2018-09-06T18:22:16.554Z,15.90
2018-09-06T18:24:46.271Z,17.87
2018-09-06T18:27:16.760Z,14.47
2018-09-06T18:29:46.503Z,15.38
2018-09-06T18:32:16.229Z,12.55
2018-09-06T18:34:45.932Z,15.58
2018-09-06T18:37:15.851Z,14.58
2018-09-06T18:39:45.541Z,15.53
2018-09-06T18:42:15.547Z,15.65
2018-09-06T18:44:45.223Z,13.70
2018-09-06T18:47:14.943Z,10.98
2018-09-06T18:49:44.939Z,10.78
2018-09-06T18:52:15.210Z,11.22
2018-09-06T18:54:44.920Z,12.90
2018-09-06T18:57:14.620Z,13.05
2018-09-06T18:59:44.307Z,10.93
2018-09-06T19:02:14.127Z,13.32
2018-09-06T19:04:43.942Z,12.90
2018-09-06T19:07:13.647Z,15.95
2018-09-06T19:09:43.670Z,15.80
2018-09-06T19:12:13.367Z,16.02
2018-09-06T19:14:43.080Z,14.28
2018-09-06T19:17:12.795Z,14.58
2018-09-06T19:19:42.454Z,16.75
2018-09-06T19:22:12.171Z,12.88
2018-09-06T19:24:41.899Z,12.88
2018-09-06T19:27:11.594Z,13.53
2018-09-06T19:29:41.276Z,13.53
2018-09-06T19:32:12.746Z,12.33
2018-09-06T19:34:42.546Z,12.20
2018-09-06T19:37:12.279Z,12.47
2018-09-06T19:39:41.991Z,12.60
2018-09-06T19:42:11.702Z,13.30
2018-09-06T19:44:41.748Z,13.22
2018-09-06T19:47:11.487Z,13.72
2018-09-06T19:49:41.191Z,14.28
2018-09-06T19:52:11.187Z,13.70
2018-09-06T19:54:40.907Z,13.83
2018-09-06T19:57:10.734Z,12.25
2018-09-06T19:59:47.107Z,13.62
2018-09-06T20:02:17.048Z,13.75
2018-09-06T20:04:46.733Z,14.85
2018-09-06T20:07:16.567Z,14.13
2018-09-06T20:09:46.440Z,13.10
2018-09-06T20:12:16.142Z,14.35
2018-09-06T20:14:45.848Z,14.40
2018-09-06T20:17:15.885Z,15.72
2018-09-06T20:19:45.575Z,14.15
2018-09-06T20:22:15.415Z,15.60
2018-09-06T20:24:45.120Z,14.75
2018-09-06T20:27:15.147Z,15.28
2018-09-06T20:29:44.851Z,16.12
2018-09-06T20:32:14.543Z,15.43
2018-09-06T20:34:44.239Z,14.45
2018-09-06T20:37:13.932Z,15.48
2018-09-06T20:39:43.612Z,13.13
2018-09-06T20:42:13.335Z,13.10
2018-09-06T20:44:43.067Z,15.53
2018-09-06T20:47:12.752Z,14.68
2018-09-06T20:49:42.807Z,17.90
2018-09-06T20:52:12.536Z,18.80
2018-09-06T20:54:42.231Z,17.70
2018-09-06T20:57:11.891Z,18.23
2018-09-06T20:59:42.182Z,16.42
2018-09-06T21:02:17.159Z,19.62
2018-09-06T21:04:46.919Z,19.62
2018-09-06T21:07:16.657Z,20.48
2018-09-06T21:09:46.739Z,20.85
2018-09-06T21:12:16.979Z,17.25
2018-09-06T21:14:46.660Z,20.12
2018-09-06T21:17:16.358Z,20.40
2018-09-06T21:19:46.119Z,20.35
2018-09-06T21:22:15.862Z,19.48
2018-09-06T21:24:45.700Z,20.17
2018-09-06T21:27:15.386Z,20.12
2018-09-06T21:29:45.083Z,16.85
2018-09-06T21:32:14.792Z,17.57
2018-09-06T21:34:44.514Z,17.57
2018-09-06T21:37:14.186Z,16.32
2018-09-06T21:39:43.874Z,15.85
2018-09-06T21:42:13.543Z,16.50
2018-09-06T21:44:43.295Z,15.08
2018-09-06T21:47:12.978Z,14.95
2018-09-06T21:49:42.688Z,16.62
2018-09-06T21:52:12.380Z,17.95
2018-09-06T21:54:42.079Z,17.12
2018-09-06T21:57:11.858Z,18.48
2018-09-06T21:59:41.586Z,20.17
2018-09-06T22:02:16.561Z,19.57
2018-09-06T22:04:46.247Z,19.92
2018-09-06T22:07:16.238Z,22.05
2018-09-06T22:09:45.962Z,20.88
2018-09-06T22:12:16.510Z,21.85
2018-09-06T22:14:47.884Z,22.77
2018-09-06T22:17:17.627Z,21.62
2018-09-06T22:19:47.801Z,22.50
2018-09-06T22:22:17.654Z,23.00
2018-09-06T22:24:47.359Z,22.07
2018-09-06T22:27:17.051Z,21.20
2018-09-06T22:29:46.802Z,22.02
2018-09-06T22:32:16.495Z,21.20
2018-09-06T22:34:46.206Z,21.90
2018-09-06T22:37:15.902Z,22.90
2018-09-06T22:39:45.605Z,22.25
2018-09-06T22:42:15.367Z,22.13
2018-09-06T22:44:45.089Z,22.87
2018-09-06T22:47:14.834Z,23.18
2018-09-06T22:49:44.582Z,21.93
2018-09-06T22:52:14.370Z,23.77
2018-09-06T22:54:44.212Z,22.67
2018-09-06T22:57:13.959Z,23.12
2018-09-06T22:59:43.660Z,23.67
2018-09-06T23:02:13.391Z,23.62
2018-09-06T23:04:43.090Z,24.15
2018-09-06T23:07:12.802Z,23.98
2018-09-06T23:09:42.495Z,23.07
2018-09-06T23:12:12.205Z,25.23
2018-09-06T23:14:41.887Z,24.85
2018-09-06T23:17:11.587Z,25.75
2018-09-06T23:19:41.259Z,25.85
2018-09-06T23:22:10.963Z,25.00
2018-09-06T23:24:40.947Z,25.05
2018-09-06T23:27:10.634Z,26.55
2018-09-06T23:29:40.322Z,27.55
2018-09-06T23:32:10.051Z,26.70
2018-09-06T23:34:39.727Z,27.20
2018-09-06T23:37:09.451Z,27.90
2018-09-06T23:39:39.139Z,29.95
2018-09-06T23:42:08.874Z,29.27
2018-09-06T23:44:38.603Z,29.45
2018-09-06T23:47:08.316Z,30.55
2018-09-06T23:49:38.010Z,30.70
2018-09-06T23:52:07.759Z,31.15
2018-09-06T23:54:37.443Z,28.67
2018-09-06T23:57:07.162Z,29.80
2018-09-06T23:59:36.853Z,28.70
